createdAt,value
2023-05-14T00:02:03.043Z,100921.56
2023-05-14T00:05:06.128Z,100936.81
2023-05-14T00:08:08.461Z,100933.41
2023-05-14T00:11:11.262Z,100929.78
2023-05-14T00:14:13.599Z,100920.91
2023-05-14T00:17:16.280Z,100921.25
2023-05-14T00:20:19.008Z,100926.00
2023-05-14T00:23:24.718Z,100912.38
2023-05-14T00:26:27.103Z,100913.19
2023-05-14T00:29:30.054Z,100897.44
2023-05-14T00:32:33.286Z,100919.03
2023-05-14T00:35:36.359Z,100923.78
2023-05-14T00:38:38.726Z,100914.91
2023-05-14T00:41:43.512Z,100897.53
2023-05-14T00:44:46.002Z,100923.62
2023-05-14T00:47:53.598Z,100910.22
2023-05-14T00:50:56.125Z,100910.22
2023-05-14T00:53:59.010Z,100890.03
2023-05-14T00:57:02.071Z,100903.84
2023-05-14T01:00:05.474Z,100911.56
2023-05-14T01:03:08.720Z,100879.72
2023-05-14T01:06:11.759Z,100876.12
2023-05-14T01:09:36.962Z,100890.47
2023-05-14T01:12:43.381Z,100886.28
2023-05-14T01:15:47.863Z,100870.91
2023-05-14T01:18:52.399Z,100878.81
2023-05-14T01:21:54.780Z,100870.78
2023-05-14T01:24:57.647Z,100870.28
2023-05-14T01:28:32.773Z,100866.66
2023-05-14T01:31:39.075Z,100865.53
2023-05-14T01:34:41.959Z,100842.81
2023-05-14T01:37:46.006Z,100842.81
2023-05-14T01:40:50.450Z,100862.25
2023-05-14T01:43:53.399Z,100849.69
2023-05-14T01:46:55.889Z,100831.22
2023-05-14T01:49:58.599Z,100825.41
2023-05-14T01:53:00.967Z,100845.38
2023-05-14T01:56:03.857Z,100840.09
2023-05-14T01:59:06.257Z,100837.91
2023-05-14T02:02:09.000Z,100824.59
2023-05-14T02:05:12.289Z,100789.16
2023-05-14T02:08:14.634Z,100808.75
2023-05-14T02:11:17.407Z,100805.12
2023-05-14T02:14:20.185Z,100801.56
2023-05-14T02:17:22.882Z,100805.75
2023-05-14T02:20:25.822Z,100804.09
2023-05-14T02:23:40.352Z,100812.12
2023-05-14T02:26:44.048Z,100784.12
2023-05-14T02:29:46.425Z,100806.25
2023-05-14T02:32:49.756Z,100810.16
2023-05-14T02:35:52.347Z,100803.72
2023-05-14T02:38:55.103Z,100808.47
2023-05-14T02:41:57.513Z,100802.87
2023-05-14T02:45:00.248Z,100805.09
2023-05-14T02:48:02.653Z,100784.62
2023-05-14T02:51:06.305Z,100802.87
2023-05-14T02:54:08.631Z,100788.47
2023-05-14T02:57:11.218Z,100803.37
2023-05-14T03:00:13.945Z,100801.41
2023-05-14T03:03:17.053Z,100805.59
2023-05-14T03:06:19.746Z,100795.03
2023-05-14T03:09:22.490Z,100784.03
2023-05-14T03:12:24.980Z,100779.53
2023-05-14T03:15:27.601Z,100791.16
2023-05-14T03:18:30.826Z,100770.69
2023-05-14T03:21:33.644Z,100790.09
2023-05-14T03:24:39.112Z,100768.78
2023-05-14T03:27:42.071Z,100797.25
2023-05-14T03:30:44.652Z,100801.16
2023-05-14T03:33:47.428Z,100780.66
2023-05-14T03:36:50.136Z,100794.38
2023-05-14T03:39:52.755Z,100791.84
2023-05-14T03:42:56.075Z,100792.09
2023-05-14T03:45:58.925Z,100770.91
2023-05-14T03:49:01.674Z,100799.69
2023-05-14T03:52:04.849Z,100797.50
2023-05-14T03:55:07.590Z,100779.72
2023-05-14T03:58:14.214Z,100792.91
2023-05-14T04:01:16.863Z,100780.63
2023-05-14T04:04:19.567Z,100770.31
2023-05-14T04:07:22.148Z,100777.03
2023-05-14T04:10:25.092Z,100780.56
2023-05-14T04:13:28.960Z,100789.53
2023-05-14T04:16:31.772Z,100772.06
2023-05-14T04:19:34.194Z,100780.28
2023-05-14T04:22:38.469Z,100767.16
2023-05-14T04:25:40.751Z,100761.19
2023-05-14T04:28:43.390Z,100768.38
2023-05-14T04:31:46.425Z,100768.50
2023-05-14T04:34:49.241Z,100774.06
2023-05-14T04:37:51.631Z,100766.47
2023-05-14T04:40:54.496Z,100748.09
2023-05-14T04:43:59.224Z,100745.09
2023-05-14T04:47:02.759Z,100744.25
2023-05-14T04:50:06.529Z,100767.84
2023-05-14T04:53:09.145Z,100750.13
2023-05-14T04:56:11.433Z,100769.41
2023-05-14T04:59:14.057Z,100769.13
2023-05-14T05:02:16.544Z,100768.22
2023-05-14T05:05:19.284Z,100769.56
2023-05-14T05:08:21.575Z,100763.78
2023-05-14T05:11:24.334Z,100773.31
2023-05-14T05:14:26.670Z,100746.13
2023-05-14T05:17:30.029Z,100735.84
2023-05-14T05:20:32.563Z,100756.84
2023-05-14T05:23:35.174Z,100752.16
2023-05-14T05:26:37.503Z,100748.63
2023-05-14T05:29:40.228Z,100727.38
2023-05-14T05:32:42.654Z,100751.19
2023-05-14T05:35:45.323Z,100731.84
2023-05-14T05:38:47.742Z,100750.13
2023-05-14T05:41:50.658Z,100755.03
2023-05-14T05:44:53.004Z,100755.09
2023-05-14T05:47:55.811Z,100731.59
2023-05-14T05:50:58.306Z,100751.19
2023-05-14T05:54:01.097Z,100746.34
2023-05-14T05:57:03.579Z,100733.41
2023-05-14T06:00:13.345Z,100756.09
2023-05-14T06:03:16.046Z,100741.25
2023-05-14T06:06:18.772Z,100749.88
2023-05-14T06:09:21.287Z,100748.78
2023-05-14T06:12:23.930Z,100759.84
2023-05-14T06:15:26.286Z,100754.28
2023-05-14T06:18:29.212Z,100758.13
2023-05-14T06:21:31.683Z,100762.09
2023-05-14T06:24:34.293Z,100759.78
2023-05-14T06:27:36.776Z,100753.97
2023-05-14T06:30:39.429Z,100761.34
2023-05-14T06:33:42.232Z,100770.84
2023-05-14T06:36:45.205Z,100765.34
2023-05-14T06:39:50.223Z,100744.94
2023-05-14T06:42:52.972Z,100762.56
2023-05-14T06:45:55.610Z,100760.91
2023-05-14T06:48:59.623Z,100738.97
2023-05-14T06:52:02.277Z,100732.56
2023-05-14T06:55:05.315Z,100749.75
2023-05-14T06:58:08.137Z,100740.84
2023-05-14T07:01:10.931Z,100737.94
2023-05-14T07:04:13.455Z,100722.09
2023-05-14T07:07:20.539Z,100723.97
2023-05-14T07:10:23.330Z,100711.16
2023-05-14T07:13:28.472Z,100727.56
2023-05-14T07:16:31.436Z,100728.50
2023-05-14T07:19:34.120Z,100720.19
2023-05-14T07:22:36.501Z,100710.25
2023-05-14T07:25:39.410Z,100713.91
2023-05-14T07:28:41.901Z,100695.88
2023-05-14T07:31:44.788Z,100711.75
2023-05-14T07:34:47.385Z,100710.69
2023-05-14T07:37:50.053Z,100703.28
2023-05-14T07:40:52.752Z,100706.50
2023-05-14T07:43:55.398Z,100700.81
2023-05-14T07:46:57.729Z,100703.59
2023-05-14T07:50:00.400Z,100700.09
2023-05-14T07:53:02.703Z,100704.13
2023-05-14T07:56:05.686Z,100686.12
2023-05-14T07:59:08.045Z,100680.34
2023-05-14T08:02:12.750Z,100680.94
2023-05-14T08:05:15.903Z,100679.81
2023-05-14T08:08:18.327Z,100671.81
2023-05-14T08:11:22.387Z,100652.72
2023-05-14T08:14:24.756Z,100665.00
2023-05-14T08:17:27.468Z,100663.16
2023-05-14T08:20:31.185Z,100661.88
2023-05-14T08:23:33.867Z,100659.41
2023-05-14T08:26:36.386Z,100646.91
2023-05-14T08:29:39.082Z,100658.59
2023-05-14T08:32:42.405Z,100647.63
2023-05-14T08:35:46.213Z,100658.41
2023-05-14T08:38:50.567Z,100625.41
2023-05-14T08:41:53.748Z,100640.91
2023-05-14T08:45:06.225Z,100640.53
2023-05-14T08:48:14.595Z,100618.91
2023-05-14T08:51:17.066Z,100615.81
2023-05-14T08:54:22.512Z,100617.88
2023-05-14T08:57:26.647Z,100600.91
2023-05-14T09:00:29.827Z,100616.00
2023-05-14T09:03:33.309Z,100604.62
2023-05-14T09:06:40.024Z,100600.06
2023-05-14T09:09:45.083Z,100615.59
2023-05-14T09:12:47.894Z,100621.38
2023-05-14T09:15:51.334Z,100608.34
2023-05-14T09:18:54.882Z,100622.94
2023-05-14T09:21:59.228Z,100614.94
2023-05-14T09:25:06.423Z,100620.72
2023-05-14T09:28:09.519Z,100594.47
2023-05-14T09:31:12.307Z,100611.84
2023-05-14T09:34:27.652Z,100592.41
2023-05-14T09:37:30.314Z,100600.41
2023-05-14T09:40:32.669Z,100604.94
2023-05-14T09:43:35.418Z,100605.12
2023-05-14T09:46:37.803Z,100601.66
2023-05-14T09:49:40.467Z,100576.22
2023-05-14T09:52:42.791Z,100580.63
2023-05-14T09:55:46.106Z,100564.09
2023-05-14T09:58:48.830Z,100576.66
2023-05-14T10:01:52.819Z,100583.84
2023-05-14T10:05:00.907Z,100561.84
2023-05-14T10:08:13.410Z,100572.97
2023-05-14T10:11:25.081Z,100556.53
2023-05-14T10:14:36.248Z,100550.75
2023-05-14T10:17:42.788Z,100537.31
2023-05-14T10:20:48.992Z,100524.59
2023-05-14T10:23:53.709Z,100514.22
2023-05-14T10:26:56.466Z,100501.87
2023-05-14T10:29:59.129Z,100488.78
2023-05-14T10:33:09.506Z,100463.34
2023-05-14T10:36:12.309Z,100457.63
2023-05-14T10:39:14.631Z,100500.94
2023-05-14T10:42:27.458Z,100498.75
2023-05-14T10:45:30.533Z,100506.62
2023-05-14T10:48:34.232Z,100511.87
2023-05-14T10:51:36.752Z,100512.72
2023-05-14T10:54:39.658Z,100507.06
2023-05-14T10:57:46.249Z,100496.22
2023-05-14T11:00:50.059Z,100483.56
2023-05-14T11:03:53.502Z,100477.00
2023-05-14T11:06:57.223Z,100493.69
2023-05-14T11:10:04.985Z,100491.84
2023-05-14T11:13:07.923Z,100498.88
2023-05-14T11:19:18.005Z,100483.94
2023-05-14T11:22:20.988Z,100461.47
2023-05-14T11:25:25.740Z,100474.13
2023-05-14T11:28:28.196Z,100472.84
2023-05-14T11:31:30.974Z,100464.06
2023-05-14T11:34:34.778Z,100479.06
2023-05-14T11:37:38.512Z,100475.78
2023-05-14T11:40:41.178Z,100472.97
2023-05-14T11:43:43.997Z,100472.66
2023-05-14T11:46:59.144Z,100455.53
2023-05-14T11:50:01.865Z,100449.94
2023-05-14T11:53:04.317Z,100469.84
2023-05-14T11:56:09.639Z,100458.47
2023-05-14T11:59:12.620Z,100468.22
2023-05-14T12:02:18.224Z,100455.69
2023-05-14T12:05:21.007Z,100452.41
2023-05-14T12:08:27.264Z,100435.03
2023-05-14T12:11:33.191Z,100437.25
2023-05-14T12:14:42.611Z,100444.03
2023-05-14T12:17:52.185Z,100439.41
2023-05-14T12:20:54.990Z,100427.97
2023-05-14T12:24:00.996Z,100411.69
2023-05-14T12:27:03.734Z,100401.97
2023-05-14T12:33:14.747Z,100409.06
2023-05-14T12:36:21.716Z,100414.53
2023-05-14T12:39:27.459Z,100421.78
2023-05-14T12:42:30.137Z,100401.12
2023-05-14T12:45:32.561Z,100413.81
2023-05-14T12:48:35.291Z,100417.44
2023-05-14T12:51:37.632Z,100415.50
2023-05-14T12:54:42.898Z,100410.84
2023-05-14T12:57:45.406Z,100399.69
2023-05-14T13:00:48.688Z,100401.47
2023-05-14T13:03:51.269Z,100389.09
2023-05-14T13:06:53.958Z,100384.44
2023-05-14T13:09:56.558Z,100371.00
2023-05-14T13:12:59.276Z,100371.00
2023-05-14T13:16:01.689Z,100372.66
2023-05-14T13:19:04.414Z,100372.47
2023-05-14T13:22:06.782Z,100368.72
2023-05-14T13:25:09.831Z,100353.34
2023-05-14T13:28:12.220Z,100353.66
2023-05-14T13:31:14.954Z,100348.59
2023-05-14T13:34:17.363Z,100336.91
2023-05-14T13:37:20.149Z,100335.25
2023-05-14T13:40:22.754Z,100333.53
2023-05-14T13:43:25.570Z,100327.59
2023-05-14T13:46:28.268Z,100322.13
2023-05-14T13:49:32.202Z,100323.81
2023-05-14T13:52:34.770Z,100305.59
2023-05-14T13:55:37.560Z,100303.41
2023-05-14T13:58:40.073Z,100302.91
2023-05-14T14:01:43.346Z,100298.47
2023-05-14T14:04:46.325Z,100290.03
2023-05-14T14:07:50.498Z,100301.56
2023-05-14T14:10:55.919Z,100277.87
2023-05-14T14:13:58.424Z,100284.34
2023-05-14T14:17:01.195Z,100289.25
2023-05-14T14:20:05.977Z,100264.22
2023-05-14T14:23:09.134Z,100274.97
2023-05-14T14:26:11.665Z,100275.44
2023-05-14T14:29:14.378Z,100284.16
2023-05-14T14:32:17.096Z,100281.56
2023-05-14T14:35:20.402Z,100279.06
2023-05-14T14:38:23.149Z,100282.81
2023-05-14T14:41:26.828Z,100274.97
2023-05-14T14:44:29.133Z,100281.97
2023-05-14T14:47:32.904Z,100279.72
2023-05-14T14:50:35.249Z,100267.06
2023-05-14T14:53:38.005Z,100262.03
2023-05-14T14:56:40.622Z,100260.87
2023-05-14T14:59:43.362Z,100255.91
2023-05-14T15:02:45.936Z,100258.22
2023-05-14T15:05:49.216Z,100235.12
2023-05-14T15:08:51.718Z,100251.22
2023-05-14T15:11:54.621Z,100244.19
2023-05-14T15:14:56.985Z,100243.47
2023-05-14T15:17:59.858Z,100231.72
2023-05-14T15:21:02.276Z,100234.31
2023-05-14T15:24:05.646Z,100220.19
2023-05-14T15:27:08.009Z,100213.59
2023-05-14T15:30:11.506Z,100204.66
2023-05-14T15:33:17.958Z,100224.22
2023-05-14T15:36:20.683Z,100220.41
2023-05-14T15:39:22.998Z,100206.25
2023-05-14T15:42:26.981Z,100226.31
2023-05-14T15:45:29.401Z,100220.75
2023-05-14T15:48:32.236Z,100195.25
2023-05-14T15:51:34.977Z,100220.75
2023-05-14T15:54:37.781Z,100202.81
2023-05-14T15:57:40.307Z,100192.94
2023-05-14T16:00:43.009Z,100193.94
2023-05-14T16:03:45.746Z,100180.00
2023-05-14T16:06:48.162Z,100168.19
2023-05-14T16:09:50.954Z,100162.75
2023-05-14T16:12:53.409Z,100158.34
2023-05-14T16:15:56.459Z,100158.66
2023-05-14T16:18:59.739Z,100163.91
2023-05-14T16:22:02.527Z,100169.47
2023-05-14T16:25:05.945Z,100161.00
2023-05-14T16:28:08.884Z,100156.81
2023-05-14T16:31:11.348Z,100154.03
2023-05-14T16:34:14.110Z,100165.75
2023-05-14T16:37:17.410Z,100162.00
2023-05-14T16:40:20.309Z,100167.38
2023-05-14T16:43:22.708Z,100160.16
2023-05-14T16:46:25.419Z,100153.78
2023-05-14T16:49:27.977Z,100151.38
2023-05-14T16:52:30.936Z,100139.22
2023-05-14T16:55:33.300Z,100135.78
2023-05-14T16:58:35.902Z,100131.87
2023-05-14T17:01:38.338Z,100123.66
2023-05-14T17:04:42.285Z,100123.38
2023-05-14T17:07:44.654Z,100127.16
2023-05-14T17:10:47.276Z,100102.03
2023-05-14T17:13:49.596Z,100116.50
2023-05-14T17:16:52.239Z,100123.09
2023-05-14T17:19:54.580Z,100104.19
2023-05-14T17:22:57.199Z,100084.97
2023-05-14T17:25:59.662Z,100100.28
2023-05-14T17:29:02.289Z,100087.75
2023-05-14T17:32:05.085Z,100103.72
2023-05-14T17:35:09.657Z,100095.00
2023-05-14T17:38:12.202Z,100080.97
2023-05-14T17:41:14.918Z,100086.09
2023-05-14T17:44:17.278Z,100078.38
2023-05-14T17:47:20.680Z,100055.84
2023-05-14T17:50:23.036Z,100059.97
2023-05-14T17:53:25.808Z,100065.91
2023-05-14T17:56:28.279Z,100044.81
2023-05-14T17:59:30.942Z,100060.78
2023-05-14T18:02:33.481Z,100052.59
2023-05-14T18:05:36.653Z,100046.22
2023-05-14T18:08:39.035Z,100046.22
2023-05-14T18:11:41.803Z,100041.91
2023-05-14T18:14:45.574Z,100039.97
2023-05-14T18:17:52.080Z,100032.12
2023-05-14T18:20:54.757Z,100014.72
2023-05-14T18:23:57.392Z,100040.22
2023-05-14T18:27:00.068Z,100031.16
2023-05-14T18:30:03.393Z,100055.00
2023-05-14T18:33:05.740Z,100064.06
2023-05-14T18:36:08.426Z,100064.37
2023-05-14T18:39:10.901Z,100070.47
2023-05-14T18:42:13.852Z,100073.75
2023-05-14T18:45:16.529Z,100072.41
2023-05-14T18:48:19.291Z,100042.38
2023-05-14T18:51:21.685Z,100063.91
2023-05-14T18:54:24.328Z,100041.34
2023-05-14T18:57:29.202Z,100049.44
2023-05-14T19:00:31.968Z,100047.31
2023-05-14T19:03:34.371Z,100045.84
2023-05-14T19:06:38.587Z,100053.87
2023-05-14T19:09:41.059Z,100063.56
2023-05-14T19:12:43.755Z,100044.53
2023-05-14T19:15:46.237Z,100045.53
2023-05-14T19:18:49.171Z,100037.84
2023-05-14T19:21:51.654Z,100027.66
2023-05-14T19:24:54.303Z,100043.25
2023-05-14T19:27:57.036Z,100050.81
2023-05-14T19:30:59.904Z,100040.97
2023-05-14T19:34:02.215Z,100029.31
2023-05-14T19:37:05.112Z,100027.97
2023-05-14T19:40:07.998Z,100030.97
2023-05-14T19:43:11.855Z,100023.56
2023-05-14T19:46:14.943Z,100005.97
2023-05-14T19:49:17.571Z,100030.13
2023-05-14T19:52:19.954Z,100015.19
2023-05-14T19:55:22.750Z,100024.22
2023-05-14T19:58:25.804Z,100025.03
2023-05-14T20:01:29.556Z,100026.38
2023-05-14T20:04:33.250Z,100006.50
2023-05-14T20:07:36.465Z,100015.56
2023-05-14T20:10:41.480Z,100019.84
2023-05-14T20:13:43.869Z,100010.31
2023-05-14T20:16:47.043Z,100008.69
2023-05-14T20:19:49.519Z,100007.84
2023-05-14T20:22:52.284Z,99991.53
2023-05-14T20:25:54.609Z,99981.53
2023-05-14T20:28:57.244Z,100010.13
2023-05-14T20:31:59.597Z,99992.72
2023-05-14T20:35:02.788Z,99985.66
2023-05-14T20:38:05.954Z,99995.69
2023-05-14T20:41:08.615Z,99982.09
2023-05-14T20:44:11.133Z,99973.19
2023-05-14T20:47:17.774Z,99973.88
2023-05-14T20:50:20.199Z,99974.84
2023-05-14T20:53:23.148Z,99962.03
2023-05-14T20:56:26.504Z,99958.09
2023-05-14T20:59:29.208Z,99956.25
2023-05-14T21:02:32.068Z,99957.13
2023-05-14T21:05:34.908Z,99949.25
2023-05-14T21:08:39.244Z,99958.28
2023-05-14T21:11:41.842Z,99931.03
2023-05-14T21:14:44.175Z,99936.66
2023-05-14T21:17:46.909Z,99922.50
2023-05-14T21:20:49.236Z,99946.13
2023-05-14T21:23:51.914Z,99925.31
2023-05-14T21:26:54.307Z,99951.25
2023-05-14T21:29:57.043Z,99933.69
2023-05-14T21:32:59.410Z,99926.16
2023-05-14T21:36:02.251Z,99919.41
2023-05-14T21:39:05.557Z,99921.88
2023-05-14T21:42:08.553Z,99904.13
2023-05-14T21:45:11.111Z,99873.78
2023-05-14T21:48:13.922Z,99879.87
2023-05-14T21:51:16.333Z,99880.19
2023-05-14T21:54:19.229Z,99876.91
2023-05-14T21:57:21.748Z,99871.81
2023-05-14T22:00:24.364Z,99870.53
2023-05-14T22:03:27.002Z,99872.16
2023-05-14T22:06:29.323Z,99854.09
2023-05-14T22:09:32.044Z,99876.09
2023-05-14T22:12:34.398Z,99858.03
2023-05-14T22:15:37.626Z,99871.50
2023-05-14T22:18:40.180Z,99868.72
2023-05-14T22:21:42.825Z,99887.56
2023-05-14T22:24:45.133Z,99880.84
2023-05-14T22:27:47.788Z,99886.13
2023-05-14T22:30:50.236Z,99883.31
2023-05-14T22:33:53.059Z,99883.62
2023-05-14T22:36:55.390Z,99878.41
2023-05-14T22:39:58.087Z,99872.47
2023-05-14T22:43:00.420Z,99880.38
2023-05-14T22:46:03.459Z,99879.56
2023-05-14T22:49:05.928Z,99875.12
2023-05-14T22:52:08.984Z,99865.94
2023-05-14T22:55:11.611Z,99875.12
2023-05-14T22:58:14.225Z,99878.06
2023-05-14T23:01:16.617Z,99858.38
2023-05-14T23:04:19.387Z,99879.22
2023-05-14T23:07:22.109Z,99872.00
2023-05-14T23:10:24.801Z,99872.81
2023-05-14T23:13:27.168Z,99872.00
2023-05-14T23:16:29.835Z,99845.25
2023-05-14T23:19:32.252Z,99844.91
2023-05-14T23:22:34.881Z,99862.47
2023-05-14T23:25:37.254Z,99830.50
2023-05-14T23:28:39.864Z,99843.94
2023-05-14T23:31:43.630Z,99816.19
2023-05-14T23:34:46.328Z,99822.78
2023-05-14T23:37:50.906Z,99791.09
2023-05-14T23:40:53.628Z,99815.06
2023-05-14T23:43:55.927Z,99811.94
2023-05-14T23:46:58.646Z,99808.81
2023-05-14T23:50:01.068Z,99791.62
2023-05-14T23:53:03.920Z,99786.03
2023-05-14T23:56:06.518Z,99799.12
2023-05-14T23:59:09.214Z,99793.72
